sensor_id;sensor_type;location;lat;lon;timestamp;pressure;altitude;pressure_sealevel;temperature;humidity
3917;BME280;1973;50.518;7.318;2023-03-21T00:00:27;101111.53;;;10.40;100.00
3917;BME280;1973;50.518;7.318;2023-03-21T00:02:54;101107.72;;;10.41;100.00
3917;BME280;1973;50.518;7.318;2023-03-21T00:05:21;101112.19;;;10.42;100.00
3917;BME280;1973;50.518;7.318;2023-03-21T00:07:48;101113.22;;;10.41;100.00
3917;BME280;1973;50.518;7.318;2023-03-21T00:10:14;101109.44;;;10.42;100.00
3917;BME280;1973;50.518;7.318;2023-03-21T00:13:01;101110.47;;;10.41;100.00
3917;BME280;1973;50.518;7.318;2023-03-21T00:15:28;101113.84;;;10.43;100.00
3917;BME280;1973;50.518;7.318;2023-03-21T00:18:09;101107.31;;;10.44;100.00
3917;BME280;1973;50.518;7.318;2023-03-21T00:20:37;101104.56;;;10.44;100.00
3917;BME280;1973;50.518;7.318;2023-03-21T00:23:04;101096.28;;;10.44;100.00
3917;BME280;1973;50.518;7.318;2023-03-21T00:25:30;101092.50;;;10.45;100.00
3917;BME280;1973;50.518;7.318;2023-03-21T00:27:58;101103.50;;;10.45;100.00
3917;BME280;1973;50.518;7.318;2023-03-21T00:30:33;101095.44;;;10.43;100.00
3917;BME280;1973;50.518;7.318;2023-03-21T00:33:00;101090.78;;;10.44;100.00
3917;BME280;1973;50.518;7.318;2023-03-21T00:35:37;101094.59;;;10.43;100.00
3917;BME280;1973;50.518;7.318;2023-03-21T00:38:24;101085.72;;;10.41;100.00
3917;BME280;1973;50.518;7.318;2023-03-21T00:40:51;101083.59;;;10.43;100.00
3917;BME280;1973;50.518;7.318;2023-03-21T00:43:18;101079.16;;;10.42;100.00
3917;BME280;1973;50.518;7.318;2023-03-21T00:45:50;101083.81;;;10.41;100.00
3917;BME280;1973;50.518;7.318;2023-03-21T00:48:17;101073.00;;;10.40;100.00
3917;BME280;1973;50.518;7.318;2023-03-21T00:50:45;101073.00;;;10.40;100.00
3917;BME280;1973;50.518;7.318;2023-03-21T00:53:13;101076.78;;;10.39;100.00
3917;BME280;1973;50.518;7.318;2023-03-21T00:55:40;101066.63;;;10.39;100.00
3917;BME280;1973;50.518;7.318;2023-03-21T00:58:06;101074.03;;;10.39;100.00
3917;BME280;1973;50.518;7.318;2023-03-21T01:00:33;101073.00;;;10.40;100.00
3917;BME280;1973;50.518;7.318;2023-03-21T01:03:04;101062.66;;;10.42;100.00
3917;BME280;1973;50.518;7.318;2023-03-21T01:05:49;101056.47;;;10.40;100.00
3917;BME280;1973;50.518;7.318;2023-03-21T01:08:42;101055.63;;;10.39;100.00
3917;BME280;1973;50.518;7.318;2023-03-21T01:11:25;101059.22;;;10.40;100.00
3917;BME280;1973;50.518;7.318;2023-03-21T01:13:53;101054.78;;;10.39;100.00
3917;BME280;1973;50.518;7.318;2023-03-21T01:16:30;101065.78;;;10.39;100.00
3917;BME280;1973;50.518;7.318;2023-03-21T01:18:56;101050.13;;;10.39;100.00
3917;BME280;1973;50.518;7.318;2023-03-21T01:21:23;101053.72;;;10.40;100.00
3917;BME280;1973;50.518;7.318;2023-03-21T01:23:50;101047.19;;;10.41;100.00
3917;BME280;1973;50.518;7.318;2023-03-21T01:26:17;101054.38;;;10.42;100.00
3917;BME280;1973;50.518;7.318;2023-03-21T01:28:44;101043.38;;;10.42;100.00
3917;BME280;1973;50.518;7.318;2023-03-21T01:31:12;101052.69;;;10.41;100.00
3917;BME280;1973;50.518;7.318;2023-03-21T01:33:40;101047.19;;;10.41;100.00
3917;BME280;1973;50.518;7.318;2023-03-21T01:36:10;101045.47;;;10.40;100.00
3917;BME280;1973;50.518;7.318;2023-03-21T01:38:41;101047.38;;;10.39;100.00
3917;BME280;1973;50.518;7.318;2023-03-21T01:41:24;101041.66;;;10.41;100.00
3917;BME280;1973;50.518;7.318;2023-03-21T01:44:02;101037.22;;;10.40;100.00
3917;BME280;1973;50.518;7.318;2023-03-21T01:46:40;101047.19;;;10.41;100.00
3917;BME280;1973;50.518;7.318;2023-03-21T01:49:33;101044.63;;;10.39;100.00
3917;BME280;1973;50.518;7.318;2023-03-21T01:52:06;101036.38;;;10.39;100.00
3917;BME280;1973;50.518;7.318;2023-03-21T01:54:43;101035.50;;;10.39;100.00
3917;BME280;1973;50.518;7.318;2023-03-21T01:57:16;101033.59;;;10.39;100.00
3917;BME280;1973;50.518;7.318;2023-03-21T01:59:47;101031.09;;;10.38;100.00
3917;BME280;1973;50.518;7.318;2023-03-21T02:02:19;101034.47;;;10.40;100.00
3917;BME280;1973;50.518;7.318;2023-03-21T02:04:49;101026.19;;;10.40;100.00
3917;BME280;1973;50.518;7.318;2023-03-21T02:07:29;101015.84;;;10.42;100.00
3917;BME280;1973;50.518;7.318;2023-03-21T02:09:57;101020.28;;;10.43;100.00
3917;BME280;1973;50.518;7.318;2023-03-21T02:12:25;101016.66;;;10.42;100.00
3917;BME280;1973;50.518;7.318;2023-03-21T02:14:52;101010.34;;;10.42;100.00
3917;BME280;1973;50.518;7.318;2023-03-21T02:29:32;100990.00;;;10.30;100.00
3917;BME280;1973;50.518;7.318;2023-03-21T02:32:05;100985.78;;;10.27;100.00
3917;BME280;1973;50.518;7.318;2023-03-21T02:38:06;100986.16;;;10.17;100.00
3917;BME280;1973;50.518;7.318;2023-03-21T02:40:43;100979.34;;;10.13;100.00
3917;BME280;1973;50.518;7.318;2023-03-21T02:43:23;100981.47;;;10.11;100.00
3917;BME280;1973;50.518;7.318;2023-03-21T02:51:30;100974.88;;;9.99;100.00
3917;BME280;1973;50.518;7.318;2023-03-21T02:54:00;100972.72;;;9.95;100.00
3917;BME280;1973;50.518;7.318;2023-03-21T02:56:50;100975.91;;;9.92;100.00
3917;BME280;1973;50.518;7.318;2023-03-21T02:59:18;100975.47;;;9.88;100.00
3917;BME280;1973;50.518;7.318;2023-03-21T03:01:46;100981.38;;;9.85;100.00
3917;BME280;1973;50.518;7.318;2023-03-21T03:04:24;100980.09;;;9.81;100.00
3917;BME280;1973;50.518;7.318;2023-03-21T03:12:23;100980.06;;;9.68;100.00
3917;BME280;1973;50.518;7.318;2023-03-21T03:15:11;100976.22;;;9.62;100.00
3917;BME280;1973;50.518;7.318;2023-03-21T03:18:41;100971.75;;;9.55;100.00
3917;BME280;1973;50.518;7.318;2023-03-21T03:23:49;100975.72;;;9.46;100.00
3917;BME280;1973;50.518;7.318;2023-03-21T03:28:54;100965.94;;;9.37;100.00
3917;BME280;1973;50.518;7.318;2023-03-21T03:31:24;100970.16;;;9.33;100.00
3917;BME280;1973;50.518;7.318;2023-03-21T03:33:55;100968.22;;;9.26;100.00
3917;BME280;1973;50.518;7.318;2023-03-21T03:36:27;100964.19;;;9.22;100.00
3917;BME280;1973;50.518;7.318;2023-03-21T03:38:59;100961.19;;;9.17;100.00
3917;BME280;1973;50.518;7.318;2023-03-21T03:41:30;100972.78;;;9.13;100.00
3917;BME280;1973;50.518;7.318;2023-03-21T03:44:19;100963.66;;;9.06;100.00
3917;BME280;1973;50.518;7.318;2023-03-21T03:46:52;100959.41;;;9.03;100.00
3917;BME280;1973;50.518;7.318;2023-03-21T03:49:28;100963.63;;;8.99;100.00
3917;BME280;1973;50.518;7.318;2023-03-21T03:52:03;100963.16;;;8.96;100.00
3917;BME280;1973;50.518;7.318;2023-03-21T03:54:39;100961.03;;;8.91;100.00
3917;BME280;1973;50.518;7.318;2023-03-21T03:57:06;100961.44;;;8.88;100.00
3917;BME280;1973;50.518;7.318;2023-03-21T03:59:35;100962.47;;;8.87;100.00
3917;BME280;1973;50.518;7.318;2023-03-21T04:02:03;100962.88;;;8.84;100.00
3917;BME280;1973;50.518;7.318;2023-03-21T04:04:30;100962.25;;;8.82;100.00
3917;BME280;1973;50.518;7.318;2023-03-21T04:06:57;100955.22;;;8.79;100.00
3917;BME280;1973;50.518;7.318;2023-03-21T04:09:25;100947.22;;;8.78;100.00
3917;BME280;1973;50.518;7.318;2023-03-21T04:12:09;100956.91;;;8.74;100.00
3917;BME280;1973;50.518;7.318;2023-03-21T04:14:35;100954.56;;;8.71;100.00
3917;BME280;1973;50.518;7.318;2023-03-21T04:17:10;100949.47;;;8.68;100.00
3917;BME280;1973;50.518;7.318;2023-03-21T04:19:37;100940.78;;;8.64;100.00
3917;BME280;1973;50.518;7.318;2023-03-21T04:22:03;100944.75;;;8.62;100.00
3917;BME280;1973;50.518;7.318;2023-03-21T04:24:30;100934.59;;;8.56;100.00
3917;BME280;1973;50.518;7.318;2023-03-21T04:26:59;100930.38;;;8.53;100.00
3917;BME280;1973;50.518;7.318;2023-03-21T04:29:26;100920.84;;;8.49;100.00
3917;BME280;1973;50.518;7.318;2023-03-21T04:31:55;100928.22;;;8.49;100.00
3917;BME280;1973;50.518;7.318;2023-03-21T04:34:22;100926.69;;;8.46;100.00
3917;BME280;1973;50.518;7.318;2023-03-21T04:36:54;100930.69;;;8.44;100.00
3917;BME280;1973;50.518;7.318;2023-03-21T04:39:21;100932.81;;;8.42;100.00
3917;BME280;1973;50.518;7.318;2023-03-21T04:41:47;100941.22;;;8.40;100.00
3917;BME280;1973;50.518;7.318;2023-03-21T04:44:15;100939.50;;;8.39;100.00
3917;BME280;1973;50.518;7.318;2023-03-21T04:46:42;100945.22;;;8.38;100.00
3917;BME280;1973;50.518;7.318;2023-03-21T04:49:09;100946.06;;;8.38;100.00
3917;BME280;1973;50.518;7.318;2023-03-21T04:51:36;100939.91;;;8.36;100.00
3917;BME280;1973;50.518;7.318;2023-03-21T04:54:02;100932.75;;;8.35;100.00
3917;BME280;1973;50.518;7.318;2023-03-21T04:56:31;100945.59;;;8.35;100.00
3917;BME280;1973;50.518;7.318;2023-03-21T04:59:02;100941.16;;;8.34;100.00
3917;BME280;1973;50.518;7.318;2023-03-21T05:01:28;100943.91;;;8.34;100.00
3917;BME280;1973;50.518;7.318;2023-03-21T05:04:00;100940.13;;;8.35;100.00
3917;BME280;1973;50.518;7.318;2023-03-21T05:06:27;100941.16;;;8.34;100.00
3917;BME280;1973;50.518;7.318;2023-03-21T05:08:55;100939.47;;;8.32;100.00
3917;BME280;1973;50.518;7.318;2023-03-21T05:11:28;100941.16;;;8.34;100.00
3917;BME280;1973;50.518;7.318;2023-03-21T05:13:59;100937.75;;;8.31;100.00
3917;BME280;1973;50.518;7.318;2023-03-21T05:16:25;100937.56;;;8.33;100.00
3917;BME280;1973;50.518;7.318;2023-03-21T05:18:57;100940.75;;;8.37;100.00
3917;BME280;1973;50.518;7.318;2023-03-21T05:21:24;100930.25;;;8.40;100.00
3917;BME280;1973;50.518;7.318;2023-03-21T05:23:55;100938.91;;;8.44;100.00
3917;BME280;1973;50.518;7.318;2023-03-21T05:26:23;100941.25;;;8.47;100.00
3917;BME280;1973;50.518;7.318;2023-03-21T05:28:50;100933.28;;;8.52;100.00
3917;BME280;1973;50.518;7.318;2023-03-21T05:31:17;100927.41;;;8.55;100.00
3917;BME280;1973;50.518;7.318;2023-03-21T05:33:45;100934.19;;;8.59;100.00
3917;BME280;1973;50.518;7.318;2023-03-21T05:36:12;100935.50;;;8.63;100.00
3917;BME280;1973;50.518;7.318;2023-03-21T05:38:39;100935.09;;;8.66;100.00
3917;BME280;1973;50.518;7.318;2023-03-21T05:41:14;100934.69;;;8.69;100.00
3917;BME280;1973;50.518;7.318;2023-03-21T05:43:44;100943.38;;;8.72;100.00
3917;BME280;1973;50.518;7.318;2023-03-21T05:46:11;100939.38;;;8.75;100.00
3917;BME280;1973;50.518;7.318;2023-03-21T05:48:37;100938.97;;;8.78;100.00
3917;BME280;1973;50.518;7.318;2023-03-21T05:51:04;100934.97;;;8.80;100.00
3917;BME280;1973;50.518;7.318;2023-03-21T05:53:31;100939.03;;;8.85;100.00
3917;BME280;1973;50.518;7.318;2023-03-21T05:55:57;100938.63;;;8.88;100.00
3917;BME280;1973;50.518;7.318;2023-03-21T05:58:24;100948.38;;;8.90;100.00
3917;BME280;1973;50.518;7.318;2023-03-21T06:00:51;100940.56;;;8.94;100.00
3917;BME280;1973;50.518;7.318;2023-03-21T06:03:17;100942.06;;;8.96;100.00
3917;BME280;1973;50.518;7.318;2023-03-21T06:05:44;100945.06;;;9.01;100.00
3917;BME280;1973;50.518;7.318;2023-03-21T06:08:10;100937.25;;;9.05;100.00
3917;BME280;1973;50.518;7.318;2023-03-21T06:10:37;100941.31;;;9.09;100.00
3917;BME280;1973;50.518;7.318;2023-03-21T06:13:03;100949.97;;;9.12;100.00
3917;BME280;1973;50.518;7.318;2023-03-21T06:15:30;100954.84;;;9.17;100.00
3917;BME280;1973;50.518;7.318;2023-03-21T06:17:56;100950.66;;;9.21;100.00
3917;BME280;1973;50.518;7.318;2023-03-21T06:20:23;100940.94;;;9.25;100.00
3917;BME280;1973;50.518;7.318;2023-03-21T06:22:49;100949.44;;;9.30;100.00
3917;BME280;1973;50.518;7.318;2023-03-21T06:25:16;100952.63;;;9.34;100.00
3917;BME280;1973;50.518;7.318;2023-03-21T06:27:42;100948.44;;;9.38;100.00
3917;BME280;1973;50.518;7.318;2023-03-21T06:30:09;100948.63;;;9.43;100.00
3917;BME280;1973;50.518;7.318;2023-03-21T06:32:36;100951.19;;;9.44;100.00
3917;BME280;1973;50.518;7.318;2023-03-21T06:35:02;100946.13;;;9.48;100.00
3917;BME280;1973;50.518;7.318;2023-03-21T06:37:30;100954.81;;;9.51;100.00
3917;BME280;1973;50.518;7.318;2023-03-21T06:39:56;100950.81;;;9.54;100.00
3917;BME280;1973;50.518;7.318;2023-03-21T06:42:22;100952.94;;;9.58;100.00
3917;BME280;1973;50.518;7.318;2023-03-21T06:44:49;100944.50;;;9.60;100.00
3917;BME280;1973;50.518;7.318;2023-03-21T06:47:15;100948.72;;;9.62;100.00
3917;BME280;1973;50.518;7.318;2023-03-21T06:49:42;100946.41;;;9.66;100.00
3917;BME280;1973;50.518;7.318;2023-03-21T06:52:10;100946.00;;;9.69;100.00
3917;BME280;1973;50.518;7.318;2023-03-21T06:54:36;100945.56;;;9.72;100.00
3917;BME280;1973;50.518;7.318;2023-03-21T06:57:03;100946.25;;;9.74;100.00
3917;BME280;1973;50.518;7.318;2023-03-21T06:59:29;100944.53;;;9.79;100.00
3917;BME280;1973;50.518;7.318;2023-03-21T07:01:57;100944.97;;;9.83;100.00
3917;BME280;1973;50.518;7.318;2023-03-21T07:04:23;100946.25;;;9.87;100.00
3917;BME280;1973;50.518;7.318;2023-03-21T07:06:52;100946.69;;;9.91;100.00
3917;BME280;1973;50.518;7.318;2023-03-21T07:09:18;100946.31;;;9.94;100.00
3917;BME280;1973;50.518;7.318;2023-03-21T07:11:49;100951.16;;;9.98;100.00
3917;BME280;1973;50.518;7.318;2023-03-21T07:14:19;100954.16;;;10.03;100.00
3917;BME280;1973;50.518;7.318;2023-03-21T07:16:45;100951.63;;;10.08;100.00
3917;BME280;1973;50.518;7.318;2023-03-21T07:19:12;100951.81;;;10.13;100.00
3917;BME280;1973;50.518;7.318;2023-03-21T07:21:38;100950.19;;;10.19;100.00
3917;BME280;1973;50.518;7.318;2023-03-21T07:24:05;100954.00;;;10.24;100.00
3917;BME280;1973;50.518;7.318;2023-03-21T07:26:31;100956.97;;;10.30;100.00
3917;BME280;1973;50.518;7.318;2023-03-21T07:28:58;100953.78;;;10.33;100.00
3917;BME280;1973;50.518;7.318;2023-03-21T07:31:24;100950.41;;;10.37;100.00
3917;BME280;1973;50.518;7.318;2023-03-21T07:33:52;100954.44;;;10.41;100.00
3917;BME280;1973;50.518;7.318;2023-03-21T07:36:18;100956.78;;;10.44;100.00
3917;BME280;1973;50.518;7.318;2023-03-21T07:38:46;100954.44;;;10.48;100.00
3917;BME280;1973;50.518;7.318;2023-03-21T07:41:13;100952.31;;;10.50;100.00
3917;BME280;1973;50.518;7.318;2023-03-21T07:43:44;100954.44;;;10.54;100.00
3917;BME280;1973;50.518;7.318;2023-03-21T07:46:11;100954.88;;;10.58;100.00
3917;BME280;1973;50.518;7.318;2023-03-21T07:48:37;100966.28;;;10.61;100.00
3917;BME280;1973;50.518;7.318;2023-03-21T07:51:04;100963.34;;;10.63;100.00
3917;BME280;1973;50.518;7.318;2023-03-21T07:53:31;100966.72;;;10.65;100.00
3917;BME280;1973;50.518;7.318;2023-03-21T07:55:58;100974.53;;;10.68;100.00
3917;BME280;1973;50.518;7.318;2023-03-21T07:58:25;100973.50;;;10.69;100.00
3917;BME280;1973;50.518;7.318;2023-03-21T08:00:52;100976.25;;;10.69;100.00
3917;BME280;1973;50.518;7.318;2023-03-21T08:03:18;100980.72;;;10.70;100.00
3917;BME280;1973;50.518;7.318;2023-03-21T08:05:45;100985.16;;;10.71;100.00
3917;BME280;1973;50.518;7.318;2023-03-21T08:08:12;100984.09;;;10.72;100.00
3917;BME280;1973;50.518;7.318;2023-03-21T08:10:38;100989.59;;;10.72;100.00
3917;BME280;1973;50.518;7.318;2023-03-21T08:13:07;100995.75;;;10.74;100.00
3917;BME280;1973;50.518;7.318;2023-03-21T08:15:33;100995.53;;;10.75;100.00
3917;BME280;1973;50.518;7.318;2023-03-21T08:18:00;100992.56;;;10.77;100.00
3917;BME280;1973;50.518;7.318;2023-03-21T08:20:26;100991.50;;;10.78;100.00
3917;BME280;1973;50.518;7.318;2023-03-21T08:22:53;100990.44;;;10.79;100.00
3917;BME280;1973;50.518;7.318;2023-03-21T08:25:21;100986.63;;;10.80;100.00
3917;BME280;1973;50.518;7.318;2023-03-21T08:27:48;100992.13;;;10.80;100.00
3917;BME280;1973;50.518;7.318;2023-03-21T08:30:20;100989.38;;;10.80;100.00
3917;BME280;1973;50.518;7.318;2023-03-21T08:32:48;100988.53;;;10.80;100.00
3917;BME280;1973;50.518;7.318;2023-03-21T08:35:16;100990.44;;;10.79;100.00
3917;BME280;1973;50.518;7.318;2023-03-21T08:37:43;100985.34;;;10.76;100.00
3917;BME280;1973;50.518;7.318;2023-03-21T08:40:13;100986.63;;;10.80;100.00
3917;BME280;1973;50.518;7.318;2023-03-21T08:42:41;100983.44;;;10.83;100.00
3917;BME280;1973;50.518;7.318;2023-03-21T08:45:09;100987.91;;;10.84;100.00
3917;BME280;1973;50.518;7.318;2023-03-21T08:47:36;100982.81;;;10.81;100.00
3917;BME280;1973;50.518;7.318;2023-03-21T08:50:05;100985.56;;;10.81;100.00
3917;BME280;1973;50.518;7.318;2023-03-21T08:52:32;100984.09;;;10.79;100.00
3917;BME280;1973;50.518;7.318;2023-03-21T08:54:58;100984.94;;;10.79;100.00
3917;BME280;1973;50.518;7.318;2023-03-21T08:57:25;100981.56;;;10.77;100.00
3917;BME280;1973;50.518;7.318;2023-03-21T08:59:51;100982.16;;;10.79;100.00
3917;BME280;1973;50.518;7.318;2023-03-21T09:02:19;100988.75;;;10.78;100.00
3917;BME280;1973;50.518;7.318;2023-03-21T09:04:45;100986.22;;;10.77;100.00
3917;BME280;1973;50.518;7.318;2023-03-21T09:07:12;100974.78;;;10.73;100.00
3917;BME280;1973;50.518;7.318;2023-03-21T09:09:40;100985.78;;;10.73;100.00
3917;BME280;1973;50.518;7.318;2023-03-21T09:12:07;100982.81;;;10.68;100.00
3917;BME280;1973;50.518;7.318;2023-03-21T09:14:33;100970.94;;;10.61;100.00
3917;BME280;1973;50.518;7.318;2023-03-21T09:17:00;100976.88;;;10.58;100.00
3917;BME280;1973;50.518;7.318;2023-03-21T09:19:27;100977.31;;;10.55;100.00
3917;BME280;1973;50.518;7.318;2023-03-21T09:21:55;100982.19;;;10.53;100.00
3917;BME280;1973;50.518;7.318;2023-03-21T09:24:23;100983.88;;;10.54;100.00
3917;BME280;1973;50.518;7.318;2023-03-21T09:26:49;100982.81;;;10.55;100.00
3917;BME280;1973;50.518;7.318;2023-03-21T09:29:17;100982.81;;;10.55;100.00
3917;BME280;1973;50.518;7.318;2023-03-21T09:31:48;100981.97;;;10.54;100.00
3917;BME280;1973;50.518;7.318;2023-03-21T09:34:14;100984.53;;;10.56;100.00
3917;BME280;1973;50.518;7.318;2023-03-21T09:36:42;100982.81;;;10.55;100.00
3917;BME280;1973;50.518;7.318;2023-03-21T09:39:10;100986.44;;;10.55;100.00
3917;BME280;1973;50.518;7.318;2023-03-21T09:47:31;100979.44;;;10.53;100.00
3917;BME280;1973;50.518;7.318;2023-03-21T09:50:13;100983.66;;;10.55;100.00
3917;BME280;1973;50.518;7.318;2023-03-21T09:53:07;100982.41;;;10.58;100.00
3917;BME280;1973;50.518;7.318;2023-03-21T09:55:37;100981.75;;;10.62;100.00
3917;BME280;1973;50.518;7.318;2023-03-21T09:58:08;100982.00;;;10.67;100.00
3917;BME280;1973;50.518;7.318;2023-03-21T10:00:43;100978.16;;;10.68;100.00
3917;BME280;1973;50.518;7.318;2023-03-21T10:03:20;100983.47;;;10.70;100.00
3917;BME280;1973;50.518;7.318;2023-03-21T10:05:52;100976.25;;;10.69;100.00
3917;BME280;1973;50.518;7.318;2023-03-21T10:08:27;100971.16;;;10.72;100.00
3917;BME280;1973;50.518;7.318;2023-03-21T10:10:59;100976.47;;;10.74;100.00
3917;BME280;1973;50.518;7.318;2023-03-21T10:13:36;100971.59;;;10.76;100.00
3917;BME280;1973;50.518;7.318;2023-03-21T10:16:13;100961.22;;;10.78;100.00
3917;BME280;1973;50.518;7.318;2023-03-21T10:18:41;100958.47;;;10.78;100.00
3917;BME280;1973;50.518;7.318;2023-03-21T10:21:12;100959.31;;;10.85;100.00
3917;BME280;1973;50.518;7.318;2023-03-21T10:24:01;100951.03;;;10.85;100.00
3917;BME280;1973;50.518;7.318;2023-03-21T10:26:28;100953.59;;;10.93;100.00
3917;BME280;1973;50.518;7.318;2023-03-21T10:28:58;100952.09;;;10.97;100.00
3917;BME280;1973;50.518;7.318;2023-03-21T10:31:28;100944.00;;;11.02;100.00
3917;BME280;1973;50.518;7.318;2023-03-21T10:34:02;100946.34;;;11.05;100.00
3917;BME280;1973;50.518;7.318;2023-03-21T10:36:32;100939.16;;;11.04;100.00
3917;BME280;1973;50.518;7.318;2023-03-21T10:39:18;100945.91;;;11.02;100.00
3917;BME280;1973;50.518;7.318;2023-03-21T10:41:46;100936.19;;;10.99;100.00
3917;BME280;1973;50.518;7.318;2023-03-21T10:44:16;100935.75;;;11.02;100.00
3917;BME280;1973;50.518;7.318;2023-03-21T10:47:06;100939.56;;;11.01;100.00
3917;BME280;1973;50.518;7.318;2023-03-21T10:49:37;100939.16;;;11.04;100.00
3917;BME280;1973;50.518;7.318;2023-03-21T10:52:26;100935.34;;;10.99;100.00
3917;BME280;1973;50.518;7.318;2023-03-21T10:55:23;100931.94;;;10.90;100.00
3917;BME280;1973;50.518;7.318;2023-03-21T10:57:54;100925.22;;;10.86;100.00
3917;BME280;1973;50.518;7.318;2023-03-21T11:00:26;100920.09;;;10.83;100.00
3917;BME280;1973;50.518;7.318;2023-03-21T11:02:56;100919.47;;;10.81;100.00
3917;BME280;1973;50.518;7.318;2023-03-21T11:08:11;100916.31;;;10.78;100.00
3917;BME280;1973;50.518;7.318;2023-03-21T11:13:32;100906.97;;;10.72;100.00
3917;BME280;1973;50.518;7.318;2023-03-21T11:18:51;100891.94;;;10.68;100.00
3917;BME280;1973;50.518;7.318;2023-03-21T11:21:18;100897.25;;;10.69;100.00
3917;BME280;1973;50.518;7.318;2023-03-21T11:23:48;100891.75;;;10.69;100.00
3917;BME280;1973;50.518;7.318;2023-03-21T11:26:37;100887.09;;;10.70;100.00
3917;BME280;1973;50.518;7.318;2023-03-21T11:31:47;100894.50;;;10.69;100.00
3917;BME280;1973;50.518;7.318;2023-03-21T11:34:25;100889.84;;;10.70;100.00
3917;BME280;1973;50.518;7.318;2023-03-21T11:36:58;100890.47;;;10.72;100.00
3917;BME280;1973;50.518;7.318;2023-03-21T11:39:34;100888.34;;;10.74;100.00
3917;BME280;1973;50.518;7.318;2023-03-21T11:42:02;100882.19;;;10.72;100.00
3917;BME280;1973;50.518;7.318;2023-03-21T11:44:34;100872.69;;;10.74;100.00
3917;BME280;1973;50.518;7.318;2023-03-21T11:47:09;100873.53;;;10.75;100.00
3917;BME280;1973;50.518;7.318;2023-03-21T11:49:36;100867.19;;;10.74;100.00
3917;BME280;1973;50.518;7.318;2023-03-21T12:00:15;100852.97;;;10.78;100.00
3917;BME280;1973;50.518;7.318;2023-03-21T12:05:36;100849.78;;;10.81;100.00
3917;BME280;1973;50.518;7.318;2023-03-21T12:16:47;100829.84;;;10.92;100.00
3917;BME280;1973;50.518;7.318;2023-03-21T12:19:38;100823.03;;;10.94;100.00
3917;BME280;1973;50.518;7.318;2023-03-21T12:25:06;100815.38;;;11.03;100.00
3917;BME280;1973;50.518;7.318;2023-03-21T12:27:52;100816.44;;;11.08;100.00
3917;BME280;1973;50.518;7.318;2023-03-21T12:30:34;100807.72;;;11.11;100.00
3917;BME280;1973;50.518;7.318;2023-03-21T12:33:49;100810.66;;;11.16;100.00
3917;BME280;1973;50.518;7.318;2023-03-21T12:36:15;100801.34;;;11.17;100.00
3917;BME280;1973;50.518;7.318;2023-03-21T12:41:24;100786.50;;;11.18;100.00
3917;BME280;1973;50.518;7.318;2023-03-21T12:44:03;100772.06;;;11.16;100.00
3917;BME280;1973;50.518;7.318;2023-03-21T12:46:38;100757.69;;;11.14;100.00
3917;BME280;1973;50.518;7.318;2023-03-21T12:49:14;100757.28;;;11.11;100.00
3917;BME280;1973;50.518;7.318;2023-03-21T12:51:58;100755.38;;;11.11;100.00
3917;BME280;1973;50.518;7.318;2023-03-21T12:57:59;100750.28;;;11.15;100.00
3917;BME280;1973;50.518;7.318;2023-03-21T13:00:48;100779.72;;;11.14;100.00
3917;BME280;1973;50.518;7.318;2023-03-21T13:03:37;100780.97;;;11.18;100.00
3917;BME280;1973;50.518;7.318;2023-03-21T13:06:09;100778.38;;;11.23;100.00
3917;BME280;1973;50.518;7.318;2023-03-21T13:11:25;100752.69;;;11.36;100.00
3917;BME280;1973;50.518;7.318;2023-03-21T13:14:06;100754.94;;;11.46;100.00
3917;BME280;1973;50.518;7.318;2023-03-21T13:16:46;100746.84;;;11.51;100.00
3917;BME280;1973;50.518;7.318;2023-03-21T13:22:10;100784.19;;;11.47;100.00
3917;BME280;1973;50.518;7.318;2023-03-21T13:24:40;100787.16;;;11.52;100.00
3917;BME280;1973;50.518;7.318;2023-03-21T13:27:29;100781.44;;;11.47;100.00
3917;BME280;1973;50.518;7.318;2023-03-21T13:30:04;100765.03;;;11.58;100.00
3917;BME280;1973;50.518;7.318;2023-03-21T13:32:38;100753.75;;;11.66;100.00
3917;BME280;1973;50.518;7.318;2023-03-21T13:35:18;100765.13;;;11.77;100.00
3917;BME280;1973;50.518;7.318;2023-03-21T13:37:52;100763.56;;;11.87;100.00
3917;BME280;1973;50.518;7.318;2023-03-21T13:40:36;100760.31;;;11.97;100.00
3917;BME280;1973;50.518;7.318;2023-03-21T13:43:04;100755.19;;;12.00;100.00
3917;BME280;1973;50.518;7.318;2023-03-21T13:45:44;100746.44;;;12.03;100.00
3917;BME280;1973;50.518;7.318;2023-03-21T13:48:32;100744.25;;;12.12;100.00
3917;BME280;1973;50.518;7.318;2023-03-21T13:51:20;100734.38;;;12.23;100.00
3917;BME280;1973;50.518;7.318;2023-03-21T13:57:04;100731.38;;;12.24;100.00
3917;BME280;1973;50.518;7.318;2023-03-21T14:04:44;100730.53;;;12.24;100.00
3917;BME280;1973;50.518;7.318;2023-03-21T14:07:34;100710.81;;;12.20;100.00
3917;BME280;1973;50.518;7.318;2023-03-21T14:10:05;100709.38;;;12.17;100.00
3917;BME280;1973;50.518;7.318;2023-03-21T14:12:39;100694.50;;;12.18;100.00
3917;BME280;1973;50.518;7.318;2023-03-21T14:15:07;100701.31;;;12.16;100.00
3917;BME280;1973;50.518;7.318;2023-03-21T14:17:56;100693.19;;;12.21;100.00
3917;BME280;1973;50.518;7.318;2023-03-21T14:20:30;100690.44;;;12.21;100.00
3917;BME280;1973;50.518;7.318;2023-03-21T14:22:57;100692.97;;;12.23;100.00
3917;BME280;1973;50.518;7.318;2023-03-21T14:25:32;100684.25;;;12.26;100.00
3917;BME280;1973;50.518;7.318;2023-03-21T14:28:16;100672.50;;;12.30;100.00
3917;BME280;1973;50.518;7.318;2023-03-21T14:30:44;100670.56;;;12.31;100.00
3917;BME280;1973;50.518;7.318;2023-03-21T14:35:45;100678.25;;;12.29;100.00
3917;BME280;1973;50.518;7.318;2023-03-21T14:38:21;100661.84;;;12.34;100.00
3917;BME280;1973;50.518;7.318;2023-03-21T14:40:50;100670.06;;;12.40;100.00
3917;BME280;1973;50.518;7.318;2023-03-21T14:43:19;100661.09;;;12.45;100.00
3917;BME280;1973;50.518;7.318;2023-03-21T14:45:47;100656.78;;;12.49;100.00
3917;BME280;1973;50.518;7.318;2023-03-21T14:48:15;100656.91;;;12.54;100.00
3917;BME280;1973;50.518;7.318;2023-03-21T14:50:50;100645.88;;;12.54;100.00
3917;BME280;1973;50.518;7.318;2023-03-21T14:53:28;100636.72;;;12.53;100.00
3917;BME280;1973;50.518;7.318;2023-03-21T14:56:01;100639.28;;;12.55;100.00
3917;BME280;1973;50.518;7.318;2023-03-21T14:58:29;100631.22;;;12.53;100.00